sensor_id;sensor_type;location;lat;lon;timestamp;P1;durP1;ratioP1;P2;durP2;ratioP2
12429;SDS011;6279;42.192;24.326;2024-03-02T00:00:57;78.93;;;41.60;;
12429;SDS011;6279;42.192;24.326;2024-03-02T00:03:22;69.37;;;38.10;;
12429;SDS011;6279;42.192;24.326;2024-03-02T00:05:48;74.47;;;38.87;;
12429;SDS011;6279;42.192;24.326;2024-03-02T00:08:17;78.87;;;39.77;;
12429;SDS011;6279;42.192;24.326;2024-03-02T00:10:47;79.07;;;39.30;;
12429;SDS011;6279;42.192;24.326;2024-03-02T00:13:13;79.73;;;40.10;;
12429;SDS011;6279;42.192;24.326;2024-03-02T00:15:51;72.87;;;41.63;;
12429;SDS011;6279;42.192;24.326;2024-03-02T00:18:20;75.87;;;40.60;;
12429;SDS011;6279;42.192;24.326;2024-03-02T00:21:06;75.23;;;39.90;;
12429;SDS011;6279;42.192;24.326;2024-03-02T00:23:34;71.43;;;38.93;;
12429;SDS011;6279;42.192;24.326;2024-03-02T00:26:00;79.97;;;40.90;;
12429;SDS011;6279;42.192;24.326;2024-03-02T00:28:30;84.00;;;41.80;;
12429;SDS011;6279;42.192;24.326;2024-03-02T00:31:06;75.73;;;40.60;;
12429;SDS011;6279;42.192;24.326;2024-03-02T00:33:37;79.77;;;41.87;;
12429;SDS011;6279;42.192;24.326;2024-03-02T00:36:12;74.73;;;41.60;;
12429;SDS011;6279;42.192;24.326;2024-03-02T00:38:44;80.13;;;43.17;;
12429;SDS011;6279;42.192;24.326;2024-03-02T00:46:30;80.40;;;43.03;;
12429;SDS011;6279;42.192;24.326;2024-03-02T00:49:02;78.70;;;42.40;;
12429;SDS011;6279;42.192;24.326;2024-03-02T00:51:31;72.13;;;41.07;;
12429;SDS011;6279;42.192;24.326;2024-03-02T00:53:59;78.70;;;43.30;;
12429;SDS011;6279;42.192;24.326;2024-03-02T00:56:25;74.37;;;41.67;;
12429;SDS011;6279;42.192;24.326;2024-03-02T00:58:51;81.73;;;42.37;;
12429;SDS011;6279;42.192;24.326;2024-03-02T01:01:17;69.87;;;38.67;;
12429;SDS011;6279;42.192;24.326;2024-03-02T01:03:44;72.43;;;39.60;;
12429;SDS011;6279;42.192;24.326;2024-03-02T01:06:19;76.80;;;38.93;;
12429;SDS011;6279;42.192;24.326;2024-03-02T01:08:44;78.87;;;38.97;;
12429;SDS011;6279;42.192;24.326;2024-03-02T01:11:11;80.73;;;39.87;;
12429;SDS011;6279;42.192;24.326;2024-03-02T01:13:36;71.83;;;38.90;;
12429;SDS011;6279;42.192;24.326;2024-03-02T01:16:02;73.80;;;39.17;;
12429;SDS011;6279;42.192;24.326;2024-03-02T01:18:29;75.50;;;38.57;;
12429;SDS011;6279;42.192;24.326;2024-03-02T01:20:54;80.63;;;39.30;;
12429;SDS011;6279;42.192;24.326;2024-03-02T01:23:23;64.07;;;36.30;;
12429;SDS011;6279;42.192;24.326;2024-03-02T01:25:48;68.13;;;37.97;;
12429;SDS011;6279;42.192;24.326;2024-03-02T01:28:14;68.47;;;36.57;;
12429;SDS011;6279;42.192;24.326;2024-03-02T01:30:39;56.93;;;32.27;;
12429;SDS011;6279;42.192;24.326;2024-03-02T01:33:05;56.00;;;32.23;;
12429;SDS011;6279;42.192;24.326;2024-03-02T01:35:31;52.83;;;31.77;;
12429;SDS011;6279;42.192;24.326;2024-03-02T01:37:57;57.37;;;30.93;;
12429;SDS011;6279;42.192;24.326;2024-03-02T01:40:22;50.80;;;28.80;;
12429;SDS011;6279;42.192;24.326;2024-03-02T01:42:51;47.80;;;28.27;;
12429;SDS011;6279;42.192;24.326;2024-03-02T01:45:17;45.83;;;28.03;;
12429;SDS011;6279;42.192;24.326;2024-03-02T01:47:43;51.93;;;29.63;;
12429;SDS011;6279;42.192;24.326;2024-03-02T01:50:09;44.43;;;27.50;;
12429;SDS011;6279;42.192;24.326;2024-03-02T01:52:36;43.73;;;25.43;;
12429;SDS011;6279;42.192;24.326;2024-03-02T01:55:02;42.00;;;26.97;;
12429;SDS011;6279;42.192;24.326;2024-03-02T01:57:28;44.93;;;27.33;;
12429;SDS011;6279;42.192;24.326;2024-03-02T01:59:54;41.47;;;24.87;;
12429;SDS011;6279;42.192;24.326;2024-03-02T02:02:20;45.40;;;26.57;;
12429;SDS011;6279;42.192;24.326;2024-03-02T02:04:45;42.40;;;25.70;;
12429;SDS011;6279;42.192;24.326;2024-03-02T02:07:11;43.33;;;25.90;;
12429;SDS011;6279;42.192;24.326;2024-03-02T02:09:36;45.27;;;26.10;;
12429;SDS011;6279;42.192;24.326;2024-03-02T02:12:02;44.03;;;26.77;;
12429;SDS011;6279;42.192;24.326;2024-03-02T02:14:29;54.27;;;28.93;;
12429;SDS011;6279;42.192;24.326;2024-03-02T02:16:55;44.93;;;26.17;;
12429;SDS011;6279;42.192;24.326;2024-03-02T02:19:20;45.60;;;27.87;;
12429;SDS011;6279;42.192;24.326;2024-03-02T02:21:46;44.83;;;28.40;;
12429;SDS011;6279;42.192;24.326;2024-03-02T02:24:11;53.77;;;29.83;;
12429;SDS011;6279;42.192;24.326;2024-03-02T02:26:38;56.60;;;29.77;;
12429;SDS011;6279;42.192;24.326;2024-03-02T02:29:04;59.07;;;30.63;;
12429;SDS011;6279;42.192;24.326;2024-03-02T02:31:39;67.43;;;33.70;;
12429;SDS011;6279;42.192;24.326;2024-03-02T02:34:05;58.50;;;31.57;;
12429;SDS011;6279;42.192;24.326;2024-03-02T02:36:31;71.73;;;34.93;;
12429;SDS011;6279;42.192;24.326;2024-03-02T02:38:57;73.60;;;35.73;;
12429;SDS011;6279;42.192;24.326;2024-03-02T02:41:25;74.37;;;36.10;;
12429;SDS011;6279;42.192;24.326;2024-03-02T02:43:50;81.33;;;37.90;;
12429;SDS011;6279;42.192;24.326;2024-03-02T02:46:16;95.70;;;39.90;;
12429;SDS011;6279;42.192;24.326;2024-03-02T02:48:41;87.80;;;39.27;;
12429;SDS011;6279;42.192;24.326;2024-03-02T02:51:06;79.93;;;37.73;;
12429;SDS011;6279;42.192;24.326;2024-03-02T02:53:32;89.87;;;38.27;;
12429;SDS011;6279;42.192;24.326;2024-03-02T02:55:57;84.23;;;39.50;;
12429;SDS011;6279;42.192;24.326;2024-03-02T02:58:23;88.23;;;41.07;;
12429;SDS011;6279;42.192;24.326;2024-03-02T03:00:48;93.87;;;42.77;;
12429;SDS011;6279;42.192;24.326;2024-03-02T03:03:13;99.70;;;43.83;;
12429;SDS011;6279;42.192;24.326;2024-03-02T03:05:39;103.53;;;46.70;;
12429;SDS011;6279;42.192;24.326;2024-03-02T03:08:05;89.67;;;43.93;;
12429;SDS011;6279;42.192;24.326;2024-03-02T03:10:32;100.43;;;44.43;;
12429;SDS011;6279;42.192;24.326;2024-03-02T03:12:58;91.90;;;45.10;;
12429;SDS011;6279;42.192;24.326;2024-03-02T03:15:23;113.23;;;46.90;;
12429;SDS011;6279;42.192;24.326;2024-03-02T03:17:49;93.07;;;42.47;;
12429;SDS011;6279;42.192;24.326;2024-03-02T03:20:15;87.57;;;41.70;;
12429;SDS011;6279;42.192;24.326;2024-03-02T03:22:41;95.17;;;43.90;;
12429;SDS011;6279;42.192;24.326;2024-03-02T03:25:06;92.70;;;42.83;;
12429;SDS011;6279;42.192;24.326;2024-03-02T03:27:35;86.87;;;39.13;;
12429;SDS011;6279;42.192;24.326;2024-03-02T03:30:01;95.60;;;42.23;;
12429;SDS011;6279;42.192;24.326;2024-03-02T03:32:26;83.67;;;42.43;;
12429;SDS011;6279;42.192;24.326;2024-03-02T03:34:51;92.93;;;43.70;;
12429;SDS011;6279;42.192;24.326;2024-03-02T03:37:17;95.53;;;44.80;;
12429;SDS011;6279;42.192;24.326;2024-03-02T03:39:42;100.90;;;44.40;;
12429;SDS011;6279;42.192;24.326;2024-03-02T03:42:08;89.03;;;42.80;;
12429;SDS011;6279;42.192;24.326;2024-03-02T03:44:33;93.53;;;44.37;;
12429;SDS011;6279;42.192;24.326;2024-03-02T03:46:59;98.47;;;43.53;;
12429;SDS011;6279;42.192;24.326;2024-03-02T03:49:26;92.50;;;41.67;;
12429;SDS011;6279;42.192;24.326;2024-03-02T03:51:51;90.47;;;40.73;;
12429;SDS011;6279;42.192;24.326;2024-03-02T03:54:16;80.07;;;35.40;;
12429;SDS011;6279;42.192;24.326;2024-03-02T03:56:42;89.43;;;38.73;;
12429;SDS011;6279;42.192;24.326;2024-03-02T03:59:07;84.07;;;34.30;;
12429;SDS011;6279;42.192;24.326;2024-03-02T04:01:33;87.60;;;35.70;;
12429;SDS011;6279;42.192;24.326;2024-03-02T04:03:58;87.47;;;34.97;;
12429;SDS011;6279;42.192;24.326;2024-03-02T04:06:24;85.93;;;34.67;;
12429;SDS011;6279;42.192;24.326;2024-03-02T04:08:49;100.07;;;33.07;;
12429;SDS011;6279;42.192;24.326;2024-03-02T04:11:15;88.23;;;34.83;;
12429;SDS011;6279;42.192;24.326;2024-03-02T04:13:40;97.77;;;35.60;;
12429;SDS011;6279;42.192;24.326;2024-03-02T04:16:06;87.77;;;33.53;;
12429;SDS011;6279;42.192;24.326;2024-03-02T04:18:31;92.43;;;32.00;;
12429;SDS011;6279;42.192;24.326;2024-03-02T04:21:00;98.67;;;34.20;;
12429;SDS011;6279;42.192;24.326;2024-03-02T04:23:28;88.87;;;32.73;;
12429;SDS011;6279;42.192;24.326;2024-03-02T04:25:54;86.83;;;34.20;;
12429;SDS011;6279;42.192;24.326;2024-03-02T04:28:19;89.97;;;33.30;;
12429;SDS011;6279;42.192;24.326;2024-03-02T04:30:45;101.50;;;36.30;;
12429;SDS011;6279;42.192;24.326;2024-03-02T04:33:10;101.13;;;35.30;;
12429;SDS011;6279;42.192;24.326;2024-03-02T04:35:36;98.63;;;37.00;;
12429;SDS011;6279;42.192;24.326;2024-03-02T04:38:01;100.20;;;36.40;;
12429;SDS011;6279;42.192;24.326;2024-03-02T04:40:27;101.63;;;35.73;;
12429;SDS011;6279;42.192;24.326;2024-03-02T04:42:52;95.20;;;33.67;;
12429;SDS011;6279;42.192;24.326;2024-03-02T04:45:18;104.03;;;33.53;;
12429;SDS011;6279;42.192;24.326;2024-03-02T04:47:43;94.53;;;34.33;;
12429;SDS011;6279;42.192;24.326;2024-03-02T04:50:09;115.53;;;38.83;;
12429;SDS011;6279;42.192;24.326;2024-03-02T04:52:35;96.37;;;34.10;;
12429;SDS011;6279;42.192;24.326;2024-03-02T04:55:01;103.80;;;36.57;;
12429;SDS011;6279;42.192;24.326;2024-03-02T04:57:42;92.20;;;34.70;;
12429;SDS011;6279;42.192;24.326;2024-03-02T05:00:08;89.00;;;33.03;;
12429;SDS011;6279;42.192;24.326;2024-03-02T05:02:37;108.90;;;33.50;;
12429;SDS011;6279;42.192;24.326;2024-03-02T05:05:05;108.17;;;35.17;;
12429;SDS011;6279;42.192;24.326;2024-03-02T05:07:31;108.70;;;34.40;;
12429;SDS011;6279;42.192;24.326;2024-03-02T05:09:56;105.07;;;33.83;;
12429;SDS011;6279;42.192;24.326;2024-03-02T05:12:22;109.33;;;35.43;;
12429;SDS011;6279;42.192;24.326;2024-03-02T05:15:21;84.27;;;29.50;;
12429;SDS011;6279;42.192;24.326;2024-03-02T05:17:47;99.57;;;32.57;;
12429;SDS011;6279;42.192;24.326;2024-03-02T05:20:12;98.53;;;34.70;;
12429;SDS011;6279;42.192;24.326;2024-03-02T05:22:37;91.10;;;31.17;;
12429;SDS011;6279;42.192;24.326;2024-03-02T05:25:04;91.37;;;31.43;;
12429;SDS011;6279;42.192;24.326;2024-03-02T05:27:30;94.67;;;31.80;;
12429;SDS011;6279;42.192;24.326;2024-03-02T05:29:56;95.47;;;33.03;;
12429;SDS011;6279;42.192;24.326;2024-03-02T05:32:21;89.73;;;31.73;;
12429;SDS011;6279;42.192;24.326;2024-03-02T05:34:47;90.43;;;31.33;;
12429;SDS011;6279;42.192;24.326;2024-03-02T05:37:12;84.80;;;28.17;;
12429;SDS011;6279;42.192;24.326;2024-03-02T05:39:38;67.80;;;28.87;;
12429;SDS011;6279;42.192;24.326;2024-03-02T05:42:03;76.87;;;27.90;;
12429;SDS011;6279;42.192;24.326;2024-03-02T05:44:29;75.93;;;28.17;;
12429;SDS011;6279;42.192;24.326;2024-03-02T05:46:54;73.10;;;29.43;;
12429;SDS011;6279;42.192;24.326;2024-03-02T05:49:20;62.17;;;25.70;;
12429;SDS011;6279;42.192;24.326;2024-03-02T05:51:46;68.80;;;28.70;;
12429;SDS011;6279;42.192;24.326;2024-03-02T05:54:11;57.53;;;25.43;;
12429;SDS011;6279;42.192;24.326;2024-03-02T05:56:37;56.30;;;26.03;;
12429;SDS011;6279;42.192;24.326;2024-03-02T05:59:02;49.10;;;24.77;;
12429;SDS011;6279;42.192;24.326;2024-03-02T06:01:45;53.73;;;24.07;;
12429;SDS011;6279;42.192;24.326;2024-03-02T06:04:17;51.53;;;23.33;;
12429;SDS011;6279;42.192;24.326;2024-03-02T06:06:42;45.67;;;23.97;;
12429;SDS011;6279;42.192;24.326;2024-03-02T06:09:08;49.00;;;25.67;;
12429;SDS011;6279;42.192;24.326;2024-03-02T06:11:34;49.20;;;25.13;;
12429;SDS011;6279;42.192;24.326;2024-03-02T06:14:00;52.40;;;25.60;;
12429;SDS011;6279;42.192;24.326;2024-03-02T06:16:25;46.53;;;24.23;;
12429;SDS011;6279;42.192;24.326;2024-03-02T06:18:51;48.67;;;24.63;;
12429;SDS011;6279;42.192;24.326;2024-03-02T06:21:18;47.73;;;24.77;;
12429;SDS011;6279;42.192;24.326;2024-03-02T06:23:44;49.60;;;25.47;;
12429;SDS011;6279;42.192;24.326;2024-03-02T06:26:10;45.50;;;24.07;;
12429;SDS011;6279;42.192;24.326;2024-03-02T06:28:35;47.97;;;25.37;;
12429;SDS011;6279;42.192;24.326;2024-03-02T06:31:01;43.40;;;23.90;;
12429;SDS011;6279;42.192;24.326;2024-03-02T06:33:27;41.07;;;24.13;;
12429;SDS011;6279;42.192;24.326;2024-03-02T06:35:53;39.67;;;21.33;;
12429;SDS011;6279;42.192;24.326;2024-03-02T06:38:19;38.33;;;19.27;;
12429;SDS011;6279;42.192;24.326;2024-03-02T06:40:44;40.83;;;19.77;;
12429;SDS011;6279;42.192;24.326;2024-03-02T06:43:10;35.93;;;19.13;;
12429;SDS011;6279;42.192;24.326;2024-03-02T06:45:35;40.47;;;21.57;;
12429;SDS011;6279;42.192;24.326;2024-03-02T06:48:00;33.97;;;18.93;;
12429;SDS011;6279;42.192;24.326;2024-03-02T06:50:26;39.17;;;18.20;;
12429;SDS011;6279;42.192;24.326;2024-03-02T06:52:51;38.70;;;18.97;;
12429;SDS011;6279;42.192;24.326;2024-03-02T06:55:17;38.57;;;19.20;;
12429;SDS011;6279;42.192;24.326;2024-03-02T06:57:42;33.70;;;16.73;;
12429;SDS011;6279;42.192;24.326;2024-03-02T07:00:08;33.40;;;17.47;;
12429;SDS011;6279;42.192;24.326;2024-03-02T07:02:34;34.70;;;18.47;;
12429;SDS011;6279;42.192;24.326;2024-03-02T07:05:01;35.23;;;19.13;;
12429;SDS011;6279;42.192;24.326;2024-03-02T07:07:26;35.47;;;19.13;;
12429;SDS011;6279;42.192;24.326;2024-03-02T07:09:52;39.60;;;20.37;;
12429;SDS011;6279;42.192;24.326;2024-03-02T07:12:17;37.70;;;20.07;;
12429;SDS011;6279;42.192;24.326;2024-03-02T07:14:43;36.60;;;19.00;;
12429;SDS011;6279;42.192;24.326;2024-03-02T07:17:41;39.33;;;21.40;;
12429;SDS011;6279;42.192;24.326;2024-03-02T07:20:07;27.77;;;17.47;;
12429;SDS011;6279;42.192;24.326;2024-03-02T07:22:33;35.03;;;20.07;;
12429;SDS011;6279;42.192;24.326;2024-03-02T07:24:59;34.83;;;19.33;;
12429;SDS011;6279;42.192;24.326;2024-03-02T07:27:24;30.33;;;18.07;;
12429;SDS011;6279;42.192;24.326;2024-03-02T07:29:50;30.30;;;18.23;;
12429;SDS011;6279;42.192;24.326;2024-03-02T07:32:15;28.10;;;17.33;;
12429;SDS011;6279;42.192;24.326;2024-03-02T07:34:41;27.80;;;16.27;;
12429;SDS011;6279;42.192;24.326;2024-03-02T07:37:06;27.70;;;16.60;;
12429;SDS011;6279;42.192;24.326;2024-03-02T07:39:32;27.07;;;16.03;;
12429;SDS011;6279;42.192;24.326;2024-03-02T07:42:00;27.13;;;16.83;;
12429;SDS011;6279;42.192;24.326;2024-03-02T07:44:26;28.63;;;16.73;;
12429;SDS011;6279;42.192;24.326;2024-03-02T07:46:51;30.40;;;17.00;;
12429;SDS011;6279;42.192;24.326;2024-03-02T07:49:17;27.53;;;17.10;;
12429;SDS011;6279;42.192;24.326;2024-03-02T07:51:45;24.87;;;16.77;;
12429;SDS011;6279;42.192;24.326;2024-03-02T07:54:10;26.03;;;16.53;;
12429;SDS011;6279;42.192;24.326;2024-03-02T07:56:36;23.00;;;15.07;;
12429;SDS011;6279;42.192;24.326;2024-03-02T07:59:02;26.00;;;15.93;;
12429;SDS011;6279;42.192;24.326;2024-03-02T08:01:28;25.07;;;16.23;;
12429;SDS011;6279;42.192;24.326;2024-03-02T08:03:57;23.47;;;16.07;;
12429;SDS011;6279;42.192;24.326;2024-03-02T08:06:25;18.50;;;12.63;;
12429;SDS011;6279;42.192;24.326;2024-03-02T08:08:53;18.30;;;12.90;;
12429;SDS011;6279;42.192;24.326;2024-03-02T08:11:19;17.00;;;12.13;;
12429;SDS011;6279;42.192;24.326;2024-03-02T08:13:45;21.43;;;14.53;;
12429;SDS011;6279;42.192;24.326;2024-03-02T08:16:10;27.60;;;13.33;;
12429;SDS011;6279;42.192;24.326;2024-03-02T08:18:36;15.20;;;10.47;;
12429;SDS011;6279;42.192;24.326;2024-03-02T08:21:01;12.60;;;9.53;;
12429;SDS011;6279;42.192;24.326;2024-03-02T08:23:26;12.37;;;9.27;;
12429;SDS011;6279;42.192;24.326;2024-03-02T08:25:52;14.07;;;10.17;;
12429;SDS011;6279;42.192;24.326;2024-03-02T08:28:18;14.07;;;10.73;;
12429;SDS011;6279;42.192;24.326;2024-03-02T08:30:43;19.20;;;13.37;;
12429;SDS011;6279;42.192;24.326;2024-03-02T08:33:08;15.30;;;11.70;;
12429;SDS011;6279;42.192;24.326;2024-03-02T08:35:34;14.07;;;10.53;;
12429;SDS011;6279;42.192;24.326;2024-03-02T08:38:04;14.67;;;11.03;;
12429;SDS011;6279;42.192;24.326;2024-03-02T08:40:29;15.43;;;11.30;;
12429;SDS011;6279;42.192;24.326;2024-03-02T08:42:56;13.57;;;10.83;;
12429;SDS011;6279;42.192;24.326;2024-03-02T08:45:21;15.53;;;12.13;;
12429;SDS011;6279;42.192;24.326;2024-03-02T08:47:47;18.10;;;12.30;;
12429;SDS011;6279;42.192;24.326;2024-03-02T08:50:13;15.00;;;11.63;;
12429;SDS011;6279;42.192;24.326;2024-03-02T08:52:41;16.57;;;10.90;;
12429;SDS011;6279;42.192;24.326;2024-03-02T08:55:08;13.70;;;11.03;;
12429;SDS011;6279;42.192;24.326;2024-03-02T08:57:33;15.10;;;11.87;;
12429;SDS011;6279;42.192;24.326;2024-03-02T08:59:59;18.63;;;12.43;;
12429;SDS011;6279;42.192;24.326;2024-03-02T09:02:25;20.37;;;13.47;;
12429;SDS011;6279;42.192;24.326;2024-03-02T09:04:50;17.00;;;11.27;;
12429;SDS011;6279;42.192;24.326;2024-03-02T09:07:16;16.23;;;12.73;;
12429;SDS011;6279;42.192;24.326;2024-03-02T09:09:41;14.40;;;11.53;;
12429;SDS011;6279;42.192;24.326;2024-03-02T09:12:07;16.43;;;11.53;;
12429;SDS011;6279;42.192;24.326;2024-03-02T09:14:32;15.93;;;12.50;;
12429;SDS011;6279;42.192;24.326;2024-03-02T09:16:58;16.27;;;11.97;;
12429;SDS011;6279;42.192;24.326;2024-03-02T09:19:24;17.37;;;12.63;;
12429;SDS011;6279;42.192;24.326;2024-03-02T09:21:49;19.67;;;13.10;;
12429;SDS011;6279;42.192;24.326;2024-03-02T09:24:16;16.47;;;12.30;;
12429;SDS011;6279;42.192;24.326;2024-03-02T09:26:41;18.47;;;14.00;;
12429;SDS011;6279;42.192;24.326;2024-03-02T09:29:07;17.70;;;13.27;;
12429;SDS011;6279;42.192;24.326;2024-03-02T09:31:32;15.23;;;11.93;;
12429;SDS011;6279;42.192;24.326;2024-03-02T09:33:58;15.87;;;12.17;;
12429;SDS011;6279;42.192;24.326;2024-03-02T09:36:23;14.93;;;11.73;;
12429;SDS011;6279;42.192;24.326;2024-03-02T09:38:49;15.43;;;12.20;;
12429;SDS011;6279;42.192;24.326;2024-03-02T09:41:14;16.53;;;13.70;;
12429;SDS011;6279;42.192;24.326;2024-03-02T09:43:40;16.27;;;13.13;;
12429;SDS011;6279;42.192;24.326;2024-03-02T09:46:09;16.97;;;12.90;;
12429;SDS011;6279;42.192;24.326;2024-03-02T09:48:35;14.40;;;11.93;;
12429;SDS011;6279;42.192;24.326;2024-03-02T09:51:00;16.93;;;12.23;;
12429;SDS011;6279;42.192;24.326;2024-03-02T09:53:31;13.13;;;11.70;;
12429;SDS011;6279;42.192;24.326;2024-03-02T09:55:58;13.03;;;10.53;;
12429;SDS011;6279;42.192;24.326;2024-03-02T09:58:24;12.57;;;9.17;;
12429;SDS011;6279;42.192;24.326;2024-03-02T10:00:49;11.77;;;9.97;;
12429;SDS011;6279;42.192;24.326;2024-03-02T10:03:15;10.33;;;8.90;;
12429;SDS011;6279;42.192;24.326;2024-03-02T10:05:41;12.13;;;9.47;;
12429;SDS011;6279;42.192;24.326;2024-03-02T10:08:07;11.60;;;9.13;;
12429;SDS011;6279;42.192;24.326;2024-03-02T10:10:39;12.30;;;10.30;;
12429;SDS011;6279;42.192;24.326;2024-03-02T10:13:07;14.47;;;11.33;;
12429;SDS011;6279;42.192;24.326;2024-03-02T10:15:33;12.73;;;10.30;;
12429;SDS011;6279;42.192;24.326;2024-03-02T10:17:59;12.70;;;9.33;;
12429;SDS011;6279;42.192;24.326;2024-03-02T10:20:24;13.63;;;9.70;;
12429;SDS011;6279;42.192;24.326;2024-03-02T10:22:51;11.43;;;9.23;;
12429;SDS011;6279;42.192;24.326;2024-03-02T10:25:32;8.47;;;7.33;;
12429;SDS011;6279;42.192;24.326;2024-03-02T10:27:58;8.97;;;7.47;;
12429;SDS011;6279;42.192;24.326;2024-03-02T10:30:30;9.80;;;8.00;;
12429;SDS011;6279;42.192;24.326;2024-03-02T10:32:55;11.40;;;8.97;;
12429;SDS011;6279;42.192;24.326;2024-03-02T10:35:24;9.70;;;8.70;;
12429;SDS011;6279;42.192;24.326;2024-03-02T10:37:51;10.30;;;8.37;;
12429;SDS011;6279;42.192;24.326;2024-03-02T10:40:26;9.93;;;8.70;;
12429;SDS011;6279;42.192;24.326;2024-03-02T10:42:53;11.23;;;9.27;;
12429;SDS011;6279;42.192;24.326;2024-03-02T10:45:20;9.57;;;8.23;;
12429;SDS011;6279;42.192;24.326;2024-03-02T10:47:49;10.30;;;8.03;;
12429;SDS011;6279;42.192;24.326;2024-03-02T10:50:15;7.27;;;6.37;;
12429;SDS011;6279;42.192;24.326;2024-03-02T10:52:40;7.17;;;6.47;;
12429;SDS011;6279;42.192;24.326;2024-03-02T10:55:06;8.63;;;6.77;;
12429;SDS011;6279;42.192;24.326;2024-03-02T10:57:53;10.33;;;8.60;;
12429;SDS011;6279;42.192;24.326;2024-03-02T11:00:21;9.70;;;8.67;;
12429;SDS011;6279;42.192;24.326;2024-03-02T11:02:55;11.47;;;9.23;;
12429;SDS011;6279;42.192;24.326;2024-03-02T11:05:28;9.40;;;8.40;;
12429;SDS011;6279;42.192;24.326;2024-03-02T11:07:57;8.70;;;7.80;;
12429;SDS011;6279;42.192;24.326;2024-03-02T11:10:27;10.47;;;9.37;;
12429;SDS011;6279;42.192;24.326;2024-03-02T11:12:56;8.63;;;7.47;;
12429;SDS011;6279;42.192;24.326;2024-03-02T11:15:27;8.40;;;7.30;;
12429;SDS011;6279;42.192;24.326;2024-03-02T11:17:52;7.30;;;6.50;;
12429;SDS011;6279;42.192;24.326;2024-03-02T11:20:18;7.27;;;6.47;;
12429;SDS011;6279;42.192;24.326;2024-03-02T11:22:45;7.67;;;6.60;;
12429;SDS011;6279;42.192;24.326;2024-03-02T11:25:23;9.40;;;7.70;;
12429;SDS011;6279;42.192;24.326;2024-03-02T11:33:07;7.53;;;6.40;;
12429;SDS011;6279;42.192;24.326;2024-03-02T11:35:33;7.03;;;6.33;;
12429;SDS011;6279;42.192;24.326;2024-03-02T11:38:00;7.67;;;6.70;;
12429;SDS011;6279;42.192;24.326;2024-03-02T11:40:27;7.70;;;6.90;;
12429;SDS011;6279;42.192;24.326;2024-03-02T11:42:53;9.43;;;8.33;;
12429;SDS011;6279;42.192;24.326;2024-03-02T11:45:25;9.87;;;7.30;;
12429;SDS011;6279;42.192;24.326;2024-03-02T11:47:51;9.33;;;7.00;;
12429;SDS011;6279;42.192;24.326;2024-03-02T11:53:07;8.53;;;7.63;;
12429;SDS011;6279;42.192;24.326;2024-03-02T11:55:34;8.20;;;6.97;;
12429;SDS011;6279;42.192;24.326;2024-03-02T11:58:02;8.80;;;7.50;;
12429;SDS011;6279;42.192;24.326;2024-03-02T12:00:28;9.27;;;7.10;;
12429;SDS011;6279;42.192;24.326;2024-03-02T12:03:00;9.27;;;8.03;;
12429;SDS011;6279;42.192;24.326;2024-03-02T12:05:30;10.53;;;8.80;;
12429;SDS011;6279;42.192;24.326;2024-03-02T12:07:59;9.93;;;8.53;;
12429;SDS011;6279;42.192;24.326;2024-03-02T12:10:27;10.00;;;8.23;;
12429;SDS011;6279;42.192;24.326;2024-03-02T12:12:56;10.83;;;8.53;;
12429;SDS011;6279;42.192;24.326;2024-03-02T12:15:23;11.00;;;8.77;;
12429;SDS011;6279;42.192;24.326;2024-03-02T12:17:58;12.93;;;9.27;;
12429;SDS011;6279;42.192;24.326;2024-03-02T12:20:26;10.03;;;8.67;;
12429;SDS011;6279;42.192;24.326;2024-03-02T12:22:53;11.07;;;8.37;;
12429;SDS011;6279;42.192;24.326;2024-03-02T12:25:22;9.43;;;8.37;;
12429;SDS011;6279;42.192;24.326;2024-03-02T12:27:49;10.37;;;8.67;;
12429;SDS011;6279;42.192;24.326;2024-03-02T12:30:18;9.30;;;7.63;;
12429;SDS011;6279;42.192;24.326;2024-03-02T12:32:44;10.87;;;8.00;;
12429;SDS011;6279;42.192;24.326;2024-03-02T12:35:10;10.03;;;8.67;;
12429;SDS011;6279;42.192;24.326;2024-03-02T12:37:45;10.80;;;8.07;;
12429;SDS011;6279;42.192;24.326;2024-03-02T12:40:15;9.30;;;8.23;;
12429;SDS011;6279;42.192;24.326;2024-03-02T12:42:46;8.77;;;7.57;;
12429;SDS011;6279;42.192;24.326;2024-03-02T12:45:12;8.80;;;7.53;;
12429;SDS011;6279;42.192;24.326;2024-03-02T12:47:42;9.10;;;7.40;;
12429;SDS011;6279;42.192;24.326;2024-03-02T12:50:08;8.73;;;7.83;;
12429;SDS011;6279;42.192;24.326;2024-03-02T12:52:34;10.60;;;9.33;;
12429;SDS011;6279;42.192;24.326;2024-03-02T12:55:00;9.73;;;8.47;;
12429;SDS011;6279;42.192;24.326;2024-03-02T12:57:27;9.53;;;8.27;;
12429;SDS011;6279;42.192;24.326;2024-03-02T13:00:11;10.13;;;7.43;;
12429;SDS011;6279;42.192;24.326;2024-03-02T13:02:40;8.23;;;7.30;;
12429;SDS011;6279;42.192;24.326;2024-03-02T13:05:06;8.37;;;7.17;;
12429;SDS011;6279;42.192;24.326;2024-03-02T13:07:36;7.80;;;6.80;;
12429;SDS011;6279;42.192;24.326;2024-03-02T13:10:06;10.10;;;8.97;;
12429;SDS011;6279;42.192;24.326;2024-03-02T13:12:33;10.90;;;9.77;;
12429;SDS011;6279;42.192;24.326;2024-03-02T13:15:00;11.27;;;9.10;;
12429;SDS011;6279;42.192;24.326;2024-03-02T13:17:27;9.00;;;7.87;;
12429;SDS011;6279;42.192;24.326;2024-03-02T13:19:53;10.83;;;7.80;;
12429;SDS011;6279;42.192;24.326;2024-03-02T13:22:22;9.30;;;7.70;;
12429;SDS011;6279;42.192;24.326;2024-03-02T13:24:48;9.07;;;8.03;;
12429;SDS011;6279;42.192;24.326;2024-03-02T13:27:16;8.63;;;7.23;;
12429;SDS011;6279;42.192;24.326;2024-03-02T13:29:45;11.10;;;8.77;;
12429;SDS011;6279;42.192;24.326;2024-03-02T13:32:11;10.23;;;7.93;;
12429;SDS011;6279;42.192;24.326;2024-03-02T13:34:36;7.83;;;7.03;;
12429;SDS011;6279;42.192;24.326;2024-03-02T13:37:02;8.17;;;7.13;;
12429;SDS011;6279;42.192;24.326;2024-03-02T13:39:29;7.60;;;6.73;;
12429;SDS011;6279;42.192;24.326;2024-03-02T13:41:56;9.57;;;7.37;;
12429;SDS011;6279;42.192;24.326;2024-03-02T13:44:32;7.23;;;6.03;;
12429;SDS011;6279;42.192;24.326;2024-03-02T13:46:59;7.80;;;7.00;;
12429;SDS011;6279;42.192;24.326;2024-03-02T13:49:27;23.50;;;18.07;;
12429;SDS011;6279;42.192;24.326;2024-03-02T13:51:59;10.83;;;7.60;;
12429;SDS011;6279;42.192;24.326;2024-03-02T13:54:25;8.63;;;6.37;;
12429;SDS011;6279;42.192;24.326;2024-03-02T13:56:51;7.40;;;6.50;;
12429;SDS011;6279;42.192;24.326;2024-03-02T13:59:17;7.87;;;7.03;;
12429;SDS011;6279;42.192;24.326;2024-03-02T14:01:42;9.00;;;7.00;;
12429;SDS011;6279;42.192;24.326;2024-03-02T14:04:08;10.57;;;8.17;;
12429;SDS011;6279;42.192;24.326;2024-03-02T14:06:34;7.20;;;6.50;;
12429;SDS011;6279;42.192;24.326;2024-03-02T14:08:59;7.13;;;5.70;;
12429;SDS011;6279;42.192;24.326;2024-03-02T14:11:25;8.20;;;6.40;;
12429;SDS011;6279;42.192;24.326;2024-03-02T14:13:50;10.23;;;7.00;;
12429;SDS011;6279;42.192;24.326;2024-03-02T14:16:19;7.50;;;6.67;;
12429;SDS011;6279;42.192;24.326;2024-03-02T14:18:45;7.77;;;6.13;;
12429;SDS011;6279;42.192;24.326;2024-03-02T14:21:10;6.30;;;5.60;;
12429;SDS011;6279;42.192;24.326;2024-03-02T14:23:36;8.27;;;6.47;;
12429;SDS011;6279;42.192;24.326;2024-03-02T14:26:01;7.10;;;5.87;;
12429;SDS011;6279;42.192;24.326;2024-03-02T14:28:27;7.00;;;6.30;;
12429;SDS011;6279;42.192;24.326;2024-03-02T14:30:53;7.97;;;6.90;;
12429;SDS011;6279;42.192;24.326;2024-03-02T14:33:19;7.77;;;6.50;;
12429;SDS011;6279;42.192;24.326;2024-03-02T14:35:44;7.67;;;6.83;;
12429;SDS011;6279;42.192;24.326;2024-03-02T14:38:10;10.77;;;6.57;;
12429;SDS011;6279;42.192;24.326;2024-03-02T14:40:36;7.57;;;6.27;;